Time;durP1;ratioP1;P1;durP2;ratioP2;P2;SDS_P1;SDS_P2;PMS_P1;PMS_P2;Temp;Humidity;BMP_temperature;BMP_pressure;BME280_temperature;BME280_humidity;BME280_pressure;Samples;Min_cycle;Max_cycle;Signal;HPM_P1;HPM_P2
2022/03/29 00:01:14;;;;;;;86.25;56.03;;;256.90;2252.80;;;;;;5038553;28;20029;-84
2022/03/29 00:03:43;;;;;;;93.20;59.03;;;281.70;2278.40;;;;;;5055058;28;20028;-83
2022/03/29 00:06:13;;;;;;;94.22;61.03;;;256.90;2252.80;;;;;;5069498;28;20035;-83
2022/03/29 00:08:43;;;;;;;92.05;56.28;;;281.60;2278.40;;;;;;5071938;28;20044;-85
2022/03/29 00:11:10;;;;;;;86.00;55.42;;;281.80;2278.40;;;;;;5038461;28;20468;-85
2022/03/29 00:13:39;;;;;;;86.50;56.75;;;281.70;2278.40;;;;;;5040941;28;20371;-84
2022/03/29 00:16:08;;;;;;;94.30;57.33;;;281.80;2278.40;;;;;;5075030;28;20106;-82
2022/03/29 00:18:34;;;;;;;92.57;59.28;;;281.80;2278.40;;;;;;5058523;28;20016;-85
2022/03/29 00:21:01;;;;;;;116.38;67.78;;;281.90;2278.40;;;;;;5058526;28;20078;-83
2022/03/29 00:23:29;;;;;;;110.57;68.22;;;281.80;2278.40;;;;;;5058494;28;20114;-85
2022/03/29 00:25:59;;;;;;;116.15;71.07;;;281.70;2278.40;;;;;;5058630;28;20030;-86
2022/03/29 00:28:39;;;;;;;152.55;91.53;;;281.60;2278.40;;;;;;5074766;28;20029;-85
2022/03/29 00:31:20;;;;;;;124.93;74.65;;;281.80;2278.40;;;;;;5058555;28;20032;-86
2022/03/29 00:34:17;;;;;;;122.45;73.57;;;281.60;2278.40;;;;;;5058283;28;20066;-84
2022/03/29 00:37:08;;;;;;;122.30;73.65;;;281.60;2278.40;;;;;;5075908;28;20032;-84
2022/03/29 00:39:34;;;;;;;118.57;75.97;;;256.70;2252.80;;;;;;5055100;28;20029;-87
2022/03/29 00:42:17;;;;;;;131.52;80.95;;;256.60;2252.80;;;;;;5076449;28;20728;-84
2022/03/29 00:44:43;;;;;;;119.07;73.53;;;256.60;2252.80;;;;;;5058669;28;20035;-85
2022/03/29 00:47:09;;;;;;;112.93;72.43;;;256.30;2252.80;;;;;;5058946;28;20165;-83
2022/03/29 00:49:35;;;;;;;112.95;71.45;;;256.60;2252.80;;;;;;5058589;28;20020;-85
2022/03/29 00:52:04;;;;;;;114.25;70.90;;;256.80;2252.80;;;;;;5058777;28;20083;-84
2022/03/29 00:54:39;;;;;;;121.78;74.10;;;256.50;2252.80;;;;;;5076300;28;20032;-84
2022/03/29 00:57:05;;;;;;;122.70;76.93;;;256.80;2252.80;;;;;;5058408;28;20372;-84
2022/03/29 00:59:46;;;;;;;119.28;76.85;;;256.90;2252.80;;;;;;5058171;28;20020;-83
2022/03/29 01:02:25;;;;;;;118.47;73.88;;;281.70;2278.40;;;;;;5074620;28;20025;-83
2022/03/29 01:08:35;;;;;;;125.30;77.78;;;281.80;2278.40;;;;;;5071505;28;20078;-82
2022/03/29 01:11:35;;;;;;;114.57;72.75;;;281.90;2278.40;;;;;;5048263;28;20032;-84
2022/03/29 01:18:26;;;;;;;97.32;60.08;;;281.90;2278.40;;;;;;4994406;28;20057;-82
2022/03/29 01:21:35;;;;;;;61.75;41.97;;;281.90;2278.40;;;;;;4987197;28;20022;-82
2022/03/29 01:31:35;;;;;;;;;;;;;;;;;;;;;
2022/03/29 01:35:01;;;;;;;89.35;57.03;;;281.60;2278.40;;;;;;5075304;28;20013;-83
2022/03/29 01:37:51;;;;;;;;;;;;;;;;;;;;;
2022/03/29 01:40:22;;;;;;;92.75;54.13;;;256.60;2252.80;;;;;;5075379;28;20035;-82
2022/03/29 01:42:56;;;;;;;89.18;57.10;;;256.90;2252.80;;;;;;5058336;28;20036;-84
2022/03/29 01:45:26;;;;;;;102.95;62.90;;;256.70;2252.80;;;;;;5058166;28;20059;-85
2022/03/29 01:47:55;;;;;;;119.78;68.47;;;256.90;2252.80;;;;;;5058304;28;20102;-85
2022/03/29 01:50:22;;;;;;;121.55;70.82;;;281.60;2278.40;;;;;;5058792;28;20017;-85
2022/03/29 01:52:58;;;;;;;128.02;75.05;;;256.90;2252.80;;;;;;5058861;28;20507;-85
2022/03/29 01:55:40;;;;;;;125.03;76.70;;;256.90;2252.80;;;;;;5056457;28;20050;-83
2022/03/29 01:58:33;;;;;;;94.20;60.22;;;281.60;2278.40;;;;;;5075395;28;20021;-84
2022/03/29 02:01:12;;;;;;;95.47;59.95;;;256.70;2252.80;;;;;;5058213;28;20460;-86
2022/03/29 02:03:40;;;;;;;97.25;58.88;;;256.60;2252.80;;;;;;5057038;28;20017;-84
2022/03/29 02:06:08;;;;;;;93.78;57.95;;;256.80;2252.80;;;;;;5056797;28;20024;-82
2022/03/29 02:08:34;;;;;;;102.50;63.33;;;256.90;2252.80;;;;;;5056762;28;20486;-84
2022/03/29 02:11:00;;;;;;;97.57;61.63;;;256.40;2252.80;;;;;;5056456;28;20031;-85
2022/03/29 02:13:28;;;;;;;91.53;59.72;;;256.60;2252.80;;;;;;5056674;28;20013;-82
2022/03/29 02:16:21;;;;;;;;;;;;;;;;;;;;;
2022/03/29 02:18:48;;;;;;;97.35;64.22;;;256.70;2252.80;;;;;;5074269;28;20016;-83
2022/03/29 02:21:15;;;;;;;96.35;62.28;;;256.60;2252.80;;;;;;5056583;28;20024;-84
2022/03/29 02:23:42;;;;;;;95.18;60.35;;;256.70;2252.80;;;;;;5039773;28;20062;-83
2022/03/29 02:26:08;;;;;;;96.00;62.35;;;256.70;2252.80;;;;;;5056349;28;20027;-82
2022/03/29 02:29:01;;;;;;;105.13;70.53;;;256.60;2252.80;;;;;;5056512;28;20029;-85
2022/03/29 02:32:06;;;;;;;110.90;72.28;;;256.70;2252.80;;;;;;5056215;28;20109;-84
2022/03/29 02:34:46;;;;;;;118.20;72.43;;;256.90;2252.80;;;;;;5052036;28;20041;-84
2022/03/29 02:37:13;;;;;;;112.28;73.05;;;256.70;2252.80;;;;;;5055659;28;20088;-84
2022/03/29 02:39:39;;;;;;;99.30;67.30;;;256.90;2252.80;;;;;;5055973;28;20403;-83
2022/03/29 02:42:14;;;;;;;96.03;63.13;;;256.80;2252.80;;;;;;5056186;28;20078;-83
2022/03/29 02:44:43;;;;;;;98.80;62.13;;;256.70;2252.80;;;;;;5072574;28;20028;-84
2022/03/29 02:47:09;;;;;;;84.80;53.95;;;256.90;2252.80;;;;;;5055997;28;20491;-85
2022/03/29 02:49:36;;;;;;;87.25;52.50;;;256.90;2252.80;;;;;;5056004;28;20113;-80
2022/03/29 02:52:13;;;;;;;76.35;52.75;;;281.90;2278.40;;;;;;5056080;28;20368;-82
2022/03/29 02:54:45;;;;;;;79.68;50.83;;;256.90;2252.80;;;;;;5053572;28;20082;-84
2022/03/29 02:57:41;;;;;;;;;;;;;;;;;;;;;
2022/03/29 03:00:58;;;;;;;63.53;44.60;;;256.70;2252.80;;;;;;5073668;28;20022;-83
2022/03/29 03:03:34;;;;;;;;;;;;;;;;;;;;;
2022/03/29 03:06:03;;;;;;;71.22;46.47;;;256.50;2252.80;;;;;;5073734;28;20024;-85
2022/03/29 03:08:35;;;;;;;67.68;46.58;;;256.50;2252.80;;;;;;5055600;28;20021;-84
2022/03/29 03:11:01;;;;;;;70.75;46.55;;;256.60;2252.80;;;;;;5052716;28;20025;-82
2022/03/29 03:13:56;;;;;;;69.88;47.10;;;256.70;2252.80;;;;;;5055593;28;20052;-84
2022/03/29 03:16:22;;;;;;;85.72;49.78;;;256.70;2252.80;;;;;;5055391;28;20498;-80
2022/03/29 03:18:48;;;;;;;89.38;52.83;;;256.50;2252.80;;;;;;5055423;28;20043;-84
2022/03/29 03:21:14;;;;;;;91.18;54.40;;;256.70;2252.80;;;;;;5055728;28;20468;-84
2022/03/29 03:23:40;;;;;;;81.20;51.63;;;256.70;2252.80;;;;;;5039411;28;20029;-84
2022/03/29 03:26:07;;;;;;;116.82;62.60;;;256.90;2252.80;;;;;;5055568;28;20106;-83
2022/03/29 03:28:33;;;;;;;91.10;56.45;;;256.70;2252.80;;;;;;5039115;28;20465;-83
2022/03/29 03:30:59;;;;;;;90.50;59.47;;;256.80;2252.80;;;;;;5055658;28;20020;-86
2022/03/29 03:33:29;;;;;;;95.80;59.78;;;256.90;2252.80;;;;;;5055459;28;20016;-84
2022/03/29 03:35:55;;;;;;;95.68;61.35;;;231.20;2252.80;;;;;;5055527;28;20043;-82
2022/03/29 03:38:47;;;;;;;90.45;61.53;;;256.60;2252.80;;;;;;5055786;28;20372;-84
2022/03/29 03:41:25;;;;;;;96.95;60.85;;;256.70;2252.80;;;;;;5038648;28;20033;-84
2022/03/29 03:44:33;;;;;;;103.45;63.55;;;256.80;2252.80;;;;;;5040434;28;20021;-82
2022/03/29 03:47:56;;;;;;;142.63;78.15;;;256.70;2252.80;;;;;;5057008;28;20178;-83
2022/03/29 03:50:21;;;;;;;128.05;69.20;;;256.90;2252.80;;;;;;5068590;28;20044;-84
2022/03/29 03:52:58;;;;;;;124.78;73.88;;;256.80;2252.80;;;;;;5076347;28;20066;-84
2022/03/29 03:55:27;;;;;;;143.20;82.10;;;256.70;2252.80;;;;;;5059213;28;20082;-83
2022/03/29 03:58:02;;;;;;;102.53;70.30;;;256.70;2252.80;;;;;;5076774;28;20021;-83
2022/03/29 04:00:38;;;;;;;105.53;67.40;;;256.40;2252.80;;;;;;5059828;28;20119;-83
2022/03/29 04:03:19;;;;;;;141.35;77.05;;;256.50;2252.80;;;;;;5077976;28;20082;-85
2022/03/29 04:05:45;;;;;;;134.60;80.68;;;256.20;2252.80;;;;;;5059619;28;20021;-85
2022/03/29 04:08:11;;;;;;;139.20;86.53;;;256.30;2252.80;;;;;;5059304;28;20023;-82
2022/03/29 04:10:40;;;;;;;127.43;79.80;;;256.50;2252.80;;;;;;5059536;28;20032;-82
2022/03/29 04:13:06;;;;;;;135.00;76.68;;;281.70;2278.40;;;;;;5058320;28;20024;-83
2022/03/29 04:16:02;;;;;;;;;;;;;;;;;;;;;
2022/03/29 04:18:56;;;;;;;156.65;98.45;;;256.50;2252.80;;;;;;5076598;28;20364;-83
2022/03/29 04:22:00;;;;;;;207.45;126.47;;;256.40;2252.80;;;;;;5075271;28;20047;-83
2022/03/29 04:24:39;;;;;;;;;;;256.50;2252.80;;;;;;5067676;28;20029;-83
2022/03/29 04:27:21;;;;;;;217.48;133.25;;;256.20;2252.80;;;;;;5058827;28;19904;-84
2022/03/29 04:30:55;;;;;;;255.67;149.03;;;256.60;2252.80;;;;;;5056462;28;20029;-82
2022/03/29 04:33:40;;;;;;;147.95;88.45;;;256.70;2252.80;;;;;;5071673;28;20258;-82
2022/03/29 04:36:52;;;;;;;138.30;88.75;;;231.30;2252.80;;;;;;5055719;28;20059;-82
2022/03/29 04:42:53;;;;;;;207.48;125.65;;;256.30;2252.80;;;;;;5042870;28;20024;-84
2022/03/29 04:45:20;;;;;;;178.60;107.95;;;256.50;2252.80;;;;;;5058297;28;20020;-84
2022/03/29 04:47:49;;;;;;;113.18;74.15;;;256.30;2252.80;;;;;;5058961;28;20021;-82
2022/03/29 04:58:00;;;;;;;177.50;117.38;;;256.60;2252.80;;;;;;5079601;28;20418;-85
2022/03/29 05:01:18;;;;;;;228.43;141.88;;;256.50;2252.80;;;;;;5050162;28;20028;-83
2022/03/29 05:04:05;;;;;;;202.60;130.55;;;256.50;2252.80;;;;;;5060389;28;20553;-83
2022/03/29 05:07:23;;;;;;;;;;;;;;;;;;;;;
2022/03/29 05:10:22;;;;;;;119.05;72.60;;;256.60;2252.80;;;;;;5063179;28;20033;-83
2022/03/29 05:12:57;;;;;;;101.03;65.32;;;256.50;2252.80;;;;;;5086847;28;20028;-84
2022/03/29 05:15:25;;;;;;;121.95;75.97;;;256.30;2252.80;;;;;;5075344;28;20025;-81
2022/03/29 05:17:53;;;;;;;177.15;108.88;;;256.60;2252.80;;;;;;5083226;28;20008;-84
2022/03/29 05:20:34;;;;;;;141.75;94.40;;;256.60;2252.80;;;;;;5072058;28;20028;-83
2022/03/29 05:23:06;;;;;;;126.72;79.05;;;256.50;2252.80;;;;;;5077342;28;20032;-83
2022/03/29 05:26:35;;;;;;;116.28;65.18;;;256.80;2252.80;;;;;;5059292;28;20060;-85
2022/03/29 05:29:03;;;;;;;109.05;62.40;;;256.60;2252.80;;;;;;5073576;28;20034;-84
2022/03/29 05:31:31;;;;;;;121.75;71.45;;;256.40;2252.80;;;;;;5076126;28;20483;-83
2022/03/29 05:33:59;;;;;;;106.70;66.68;;;256.60;2252.80;;;;;;5041759;28;20020;-85
2022/03/29 05:53:39;;;;;;;149.82;99.38;;;256.90;2252.80;;;;;;5033765;28;20436;-83
2022/03/29 05:56:17;;;;;;;132.77;78.70;;;256.70;2252.80;;;;;;5030798;28;20485;-83
2022/03/29 05:58:43;;;;;;;132.63;79.95;;;256.90;2252.80;;;;;;5033682;28;20080;-83
2022/03/29 06:01:09;;;;;;;120.10;75.82;;;281.80;2278.40;;;;;;5018178;28;20114;-79
2022/03/29 06:03:41;;;;;;;106.85;63.22;;;256.90;2252.80;;;;;;5016242;28;20037;-84
2022/03/29 06:06:44;;;;;;;98.43;61.22;;;281.90;2278.40;;;;;;5017556;28;20038;-81
2022/03/29 06:09:10;;;;;;;93.00;58.58;;;282.10;2278.40;;;;;;4980417;28;20030;-79
2022/03/29 06:11:37;;;;;;;85.25;56.72;;;282.20;2278.40;;;;;;5049716;28;20123;-81
2022/03/29 06:14:03;;;;;;;86.82;56.50;;;282.30;2278.40;;;;;;5056598;28;20057;-81
2022/03/29 06:16:38;;;;;;;76.90;56.67;;;282.40;2278.40;;;;;;5062552;28;20496;-79
2022/03/29 06:19:13;;;;;;;83.47;56.28;;;282.40;2278.40;;;;;;5074212;28;20449;-83
2022/03/29 06:28:59;;;;;;;;;;;282.40;2278.40;;;;;;5001712;28;20022;-82
2022/03/29 06:31:28;;;;;;;74.53;39.17;;;282.50;2278.40;;;;;;4995960;28;19963;-82
2022/03/29 06:34:50;;;;;;;;;;;;;;;;;;;;;
2022/03/29 06:37:19;;;;;;;59.30;39.85;;;307.20;2304.00;;;;;;5014074;28;20040;-83
2022/03/29 06:39:49;;;;;;;59.70;39.15;;;307.30;2304.00;;;;;;5075923;28;20024;-82
2022/03/29 06:46:40;;;;;;;;;;;;;;;;;;;;;
2022/03/29 06:49:15;;;;;;;60.13;38.72;;;307.40;2304.00;;;;;;5090652;28;20028;-82
2022/03/29 06:51:44;;;;;;;61.50;37.40;;;307.40;2304.00;;;;;;5039215;28;20029;-79
2022/03/29 06:54:50;;;;;;;67.43;45.92;;;307.40;2304.00;;;;;;5075823;28;20055;-81
2022/03/29 06:57:22;;;;;;;72.07;53.20;;;307.70;2304.00;;;;;;5072455;28;20024;-81
2022/03/29 07:03:03;;;;;;;62.78;43.58;;;307.80;2304.00;;;;;;5064153;28;20034;-80
2022/03/29 07:05:38;;;;;;;83.68;59.95;;;308.00;2304.00;;;;;;5075218;28;20020;-82
2022/03/29 07:08:16;;;;;;;73.95;51.35;;;308.10;2304.00;;;;;;5075347;28;20034;-82
2022/03/29 07:13:34;;;;;;;59.45;41.97;;;332.90;2329.60;;;;;;5093847;28;20039;-82
2022/03/29 07:16:14;;;;;;;82.28;54.03;;;333.10;2329.60;;;;;;5075260;28;20071;-79
2022/03/29 07:18:47;;;;;;;55.85;40.55;;;333.20;2329.60;;;;;;5075335;28;20414;-85
2022/03/29 07:21:16;;;;;;;58.63;40.95;;;333.30;2329.60;;;;;;5075410;28;20031;-80
2022/03/29 07:23:47;;;;;;;55.92;38.85;;;333.30;2329.60;;;;;;5075575;28;20022;-84
2022/03/29 07:29:42;;;;;;;54.08;33.10;;;333.50;2329.60;;;;;;4991747;28;20366;-83
2022/03/29 07:32:38;;;;;;;46.90;32.10;;;333.70;2278.40;;;;;;4959691;28;20073;-83
2022/03/29 07:35:35;;;;;;;45.10;26.73;;;333.70;2252.80;;;;;;5053253;28;20032;-85
2022/03/29 07:38:10;;;;;;;39.47;25.33;;;358.40;2201.60;;;;;;5075555;28;20016;-84
2022/03/29 07:40:45;;;;;;;46.78;24.83;;;333.40;2176.00;;;;;;5075477;28;20073;-82
2022/03/29 07:43:15;;;;;;;38.97;23.27;;;358.50;2176.00;;;;;;5074892;28;20464;-81
2022/03/29 07:45:47;;;;;;;38.75;26.08;;;358.50;2150.40;;;;;;5057636;28;20425;-81
2022/03/29 07:48:13;;;;;;;43.72;21.60;;;359.00;2150.40;;;;;;5073281;28;20062;-84
2022/03/29 07:50:45;;;;;;;30.23;20.65;;;358.70;2150.40;;;;;;5074815;28;20038;-83
2022/03/29 07:53:11;;;;;;;35.17;21.15;;;358.80;2124.80;;;;;;5074900;28;20423;-81
2022/03/29 07:55:40;;;;;;;26.00;16.85;;;358.90;2124.80;;;;;;5074569;28;20455;-82
2022/03/29 07:58:06;;;;;;;29.88;21.30;;;359.00;2099.20;;;;;;5075119;28;20070;-83
2022/03/29 08:00:33;;;;;;;40.53;22.55;;;359.10;2124.80;;;;;;5074873;28;20097;-83
2022/03/29 08:03:16;;;;;;;36.53;25.30;;;359.30;2099.20;;;;;;5073461;28;20028;-83
2022/03/29 08:05:57;;;;;;;57.97;31.70;;;384.00;2099.20;;;;;;5074497;28;20162;-83
2022/03/29 08:08:25;;;;;;;40.65;23.60;;;384.10;2099.20;;;;;;5074744;28;20020;-82
2022/03/29 08:10:57;;;;;;;32.13;19.42;;;384.30;2124.80;;;;;;5075118;28;20073;-83
2022/03/29 08:13:33;;;;;;;43.55;25.15;;;384.40;2099.20;;;;;;5075058;28;20016;-82
2022/03/29 08:16:01;;;;;;;42.30;26.52;;;384.40;2099.20;;;;;;5074326;28;20089;-81
2022/03/29 08:18:31;;;;;;;36.97;24.30;;;384.50;2073.60;;;;;;5074705;28;20016;-83
2022/03/29 08:20:57;;;;;;;42.63;27.05;;;384.70;2073.60;;;;;;5074726;28;20080;-83
2022/03/29 08:23:26;;;;;;;40.30;28.25;;;410.00;2099.20;;;;;;5074681;28;20372;-82
2022/03/29 08:25:55;;;;;;;33.75;23.73;;;384.90;2048.00;;;;;;5075392;28;20059;-82
2022/03/29 08:28:21;;;;;;;33.13;18.40;;;409.90;2048.00;;;;;;5074645;28;20345;-82
2022/03/29 08:30:47;;;;;;;29.58;18.85;;;384.60;2022.40;;;;;;5074678;28;20028;-84
2022/03/29 08:33:21;;;;;;;31.80;17.60;;;384.50;2022.40;;;;;;5092041;28;20051;-82
2022/03/29 08:35:49;;;;;;;26.42;17.52;;;384.50;2022.40;;;;;;5078001;28;20016;-80
2022/03/29 08:38:14;;;;;;;27.38;18.52;;;384.70;2022.40;;;;;;5078183;28;20141;-79
2022/03/29 08:40:44;;;;;;;26.00;17.10;;;384.70;1996.80;;;;;;5078045;28;20028;-81
2022/03/29 08:43:10;;;;;;;29.88;17.98;;;384.90;1996.80;;;;;;5078020;28;20401;-81
2022/03/29 08:45:43;;;;;;;28.30;17.98;;;409.80;2022.40;;;;;;5078436;28;20391;-84
2022/03/29 08:48:12;;;;;;;28.80;18.88;;;409.70;1996.80;;;;;;5078448;28;20020;-84
2022/03/29 08:50:40;;;;;;;34.80;24.42;;;409.70;1996.80;;;;;;5073321;28;20078;-85
2022/03/29 08:53:14;;;;;;;41.85;27.35;;;409.80;1996.80;;;;;;5073700;28;20020;-83
2022/03/29 08:55:42;;;;;;;34.42;21.80;;;410.00;1996.80;;;;;;5095465;28;20016;-83
2022/03/29 08:58:11;;;;;;;38.05;21.10;;;410.00;1996.80;;;;;;5067553;28;20021;-80
2022/03/29 09:00:37;;;;;;;35.20;21.15;;;410.00;1996.80;;;;;;5057647;28;20027;-87
2022/03/29 09:03:03;;;;;;;24.83;15.65;;;410.20;1971.20;;;;;;5057851;28;20024;-83
2022/03/29 09:05:32;;;;;;;32.88;18.85;;;410.10;1971.20;;;;;;5057480;28;20025;-81
2022/03/29 09:08:02;;;;;;;27.42;19.33;;;410.00;1971.20;;;;;;5057716;28;20039;-81
2022/03/29 09:10:44;;;;;;;27.08;17.67;;;409.90;1971.20;;;;;;5057466;28;20415;-82
2022/03/29 09:13:31;;;;;;;28.00;15.77;;;410.00;1945.60;;;;;;5057729;28;20016;-81
2022/03/29 09:16:01;;;;;;;28.17;16.73;;;409.80;1945.60;;;;;;5057302;28;20127;-80
2022/03/29 09:18:28;;;;;;;26.85;17.17;;;409.90;1971.20;;;;;;5057394;28;20027;-79
2022/03/29 09:21:16;;;;;;;23.17;15.52;;;410.00;1945.60;;;;;;5057736;28;20074;-81
2022/03/29 09:24:02;;;;;;;22.80;15.93;;;409.90;1945.60;;;;;;5057553;28;20020;-83
2022/03/29 09:26:30;;;;;;;30.70;17.25;;;410.00;1945.60;;;;;;5057423;28;20115;-82
2022/03/29 09:28:59;;;;;;;21.83;15.27;;;410.00;1945.60;;;;;;5057422;28;20025;-80
2022/03/29 09:31:29;;;;;;;30.55;16.70;;;410.00;1920.00;;;;;;5056714;28;20055;-80
2022/03/29 09:34:20;;;;;;;21.10;15.30;;;410.10;1920.00;;;;;;5056094;28;20032;-79
2022/03/29 09:36:53;;;;;;;25.65;17.25;;;410.20;1920.00;;;;;;5056938;28;20020;-82
2022/03/29 09:39:39;;;;;;;34.70;19.35;;;410.30;1920.00;;;;;;5056270;28;20428;-81
2022/03/29 09:42:13;;;;;;;23.77;14.98;;;410.00;1920.00;;;;;;5056719;28;20359;-81
2022/03/29 09:44:44;;;;;;;24.73;14.20;;;410.30;1894.40;;;;;;5057189;28;20111;-81
2022/03/29 09:47:13;;;;;;;19.98;13.65;;;410.30;1894.40;;;;;;5056778;28;20055;-80
2022/03/29 09:49:58;;;;;;;21.73;14.23;;;410.40;1894.40;;;;;;5057107;28;20116;-83
2022/03/29 09:52:30;;;;;;;28.48;15.70;;;410.50;1894.40;;;;;;5057100;28;20020;-80
2022/03/29 09:55:16;;;;;;;22.10;14.02;;;435.30;1868.80;;;;;;5057088;28;20024;-80
2022/03/29 09:57:50;;;;;;;22.17;14.80;;;435.50;1868.80;;;;;;5057066;28;20020;-78
2022/03/29 10:00:32;;;;;;;23.27;14.95;;;435.60;1868.80;;;;;;5056666;28;20025;-81
2022/03/29 10:02:59;;;;;;;26.43;15.97;;;435.80;1843.20;;;;;;5073897;28;20024;-80
2022/03/29 10:05:26;;;;;;;26.88;16.73;;;460.80;1843.20;;;;;;5057005;28;20646;-81
2022/03/29 10:10:53;;;;;;;22.17;14.65;;;461.20;1792.00;;;;;;5071061;28;20075;-78
2022/03/29 10:13:23;;;;;;;27.77;16.77;;;461.40;1766.40;;;;;;5048060;28;20016;-80
2022/03/29 10:15:50;;;;;;;22.17;14.77;;;461.30;1792.00;;;;;;5056270;28;20495;-78
2022/03/29 10:18:16;;;;;;;27.02;18.10;;;461.40;1792.00;;;;;;5056894;28;20035;-78
2022/03/29 10:20:43;;;;;;;29.05;21.00;;;461.40;1766.40;;;;;;5074169;28;20028;-79
2022/03/29 10:23:14;;;;;;;28.58;18.10;;;461.20;1740.80;;;;;;5056689;28;20070;-78
2022/03/29 10:25:41;;;;;;;27.98;17.60;;;461.70;1740.80;;;;;;5056634;28;20020;-78
2022/03/29 10:28:08;;;;;;;28.80;18.90;;;486.60;1715.20;;;;;;5056465;28;20452;-80
2022/03/29 10:30:39;;;;;;;26.23;17.20;;;486.70;1689.60;;;;;;5074392;28;20068;-80
2022/03/29 10:33:34;;;;;;;33.45;19.90;;;486.70;1638.40;;;;;;5056356;28;20475;-79
2022/03/29 10:36:12;;;;;;;27.65;20.10;;;486.70;1612.80;;;;;;5051471;28;20099;-80
2022/03/29 10:38:47;;;;;;;24.90;18.13;;;486.70;1561.60;;;;;;5056264;28;20016;-77
2022/03/29 10:41:28;;;;;;;28.50;18.90;;;486.70;1561.60;;;;;;5056056;28;20031;-77
2022/03/29 10:44:01;;;;;;;27.98;18.45;;;487.10;1561.60;;;;;;5072432;28;20090;-76
2022/03/29 10:46:39;;;;;;;30.02;18.73;;;487.20;1561.60;;;;;;5065816;28;20074;-77
2022/03/29 10:49:28;;;;;;;34.22;18.80;;;512.30;1536.00;;;;;;5055797;28;20078;-79
2022/03/29 10:52:22;;;;;;;30.73;20.25;;;512.40;1536.00;;;;;;5056067;28;20405;-76
2022/03/29 10:54:50;;;;;;;37.15;21.02;;;512.60;1536.00;;;;;;5073591;28;20025;-76
2022/03/29 10:57:31;;;;;;;25.00;19.27;;;512.90;1561.60;;;;;;5055014;28;20035;-78
2022/03/29 11:00:10;;;;;;;28.15;18.55;;;537.80;1536.00;;;;;;5055951;28;20021;-79
2022/03/29 11:02:36;;;;;;;37.75;26.30;;;537.90;1536.00;;;;;;5055606;28;20016;-77
2022/03/29 11:05:09;;;;;;;25.75;18.58;;;538.00;1459.20;;;;;;5055918;28;20026;-80
2022/03/29 11:07:59;;;;;;;27.02;19.23;;;537.70;1459.20;;;;;;5073910;28;20035;-78
2022/03/29 11:10:42;;;;;;;24.63;19.05;;;537.70;1459.20;;;;;;5046744;28;20040;-78
2022/03/29 11:13:34;;;;;;;29.20;20.75;;;537.90;1459.20;;;;;;5055722;28;20066;-79
2022/03/29 11:16:20;;;;;;;27.75;19.30;;;538.30;1433.60;;;;;;5050444;28;20040;-81
2022/03/29 11:18:46;;;;;;;25.17;20.27;;;563.30;1459.20;;;;;;5055317;28;20024;-79
2022/03/29 11:21:31;;;;;;;24.80;20.92;;;563.50;1459.20;;;;;;5055646;28;20028;-78
2022/03/29 11:23:59;;;;;;;27.25;20.08;;;563.80;1408.00;;;;;;5072182;28;20028;-80
2022/03/29 11:26:36;;;;;;;26.17;20.02;;;563.80;1408.00;;;;;;5073636;28;20024;-81
2022/03/29 11:29:06;;;;;;;26.40;19.98;;;563.50;1408.00;;;;;;5055563;28;20016;-79
2022/03/29 11:31:37;;;;;;;28.40;19.92;;;563.70;1408.00;;;;;;5072031;28;20467;-77
2022/03/29 11:34:04;;;;;;;29.73;20.65;;;564.00;1433.60;;;;;;5055474;28;20518;-79
2022/03/29 11:36:32;;;;;;;29.10;20.25;;;588.80;1408.00;;;;;;5055404;28;20020;-80
2022/03/29 11:38:59;;;;;;;30.58;21.38;;;589.00;1433.60;;;;;;5055066;28;20111;-76
2022/03/29 11:41:27;;;;;;;29.38;23.88;;;589.30;1408.00;;;;;;5055394;28;20024;-79
2022/03/29 11:43:59;;;;;;;25.67;18.88;;;589.40;1382.40;;;;;;5055359;28;20067;-79
2022/03/29 11:46:41;;;;;;;40.00;23.00;;;589.40;1408.00;;;;;;5055143;28;20484;-78
2022/03/29 11:49:07;;;;;;;;;;;589.40;1382.40;;;;;;5055737;28;20427;-78
2022/03/29 11:51:33;;;;;;;25.02;19.35;;;589.50;1433.60;;;;;;5055109;28;19912;-79
2022/03/29 11:53:59;;;;;;;41.60;21.15;;;589.10;1433.60;;;;;;5055301;28;20126;-78
2022/03/29 11:56:26;;;;;;;26.65;19.40;;;589.30;1408.00;;;;;;5047150;28;20464;-78
2022/03/29 11:58:54;;;;;;;30.02;20.40;;;589.20;1408.00;;;;;;5054933;28;20118;-78
2022/03/29 12:01:27;;;;;;;27.52;19.35;;;589.70;1408.00;;;;;;5055280;28;20167;-77
2022/03/29 12:03:54;;;;;;;28.17;18.45;;;589.60;1408.00;;;;;;5055248;28;20032;-79
2022/03/29 12:06:21;;;;;;;28.20;19.85;;;614.40;1408.00;;;;;;5054823;28;20040;-78
2022/03/29 12:08:59;;;;;;;28.42;16.83;;;614.60;1382.40;;;;;;5074364;28;20028;-78
2022/03/29 12:11:35;;;;;;;22.80;15.80;;;614.60;1382.40;;;;;;5076531;28;20040;-77
2022/03/29 12:14:16;;;;;;;22.83;15.52;;;614.40;1408.00;;;;;;5058791;28;20023;-78
2022/03/29 12:16:43;;;;;;;27.10;17.17;;;614.50;1408.00;;;;;;5065145;28;20045;-78
2022/03/29 12:19:20;;;;;;;20.67;16.85;;;614.80;1408.00;;;;;;5056525;28;20024;-79
2022/03/29 12:21:51;;;;;;;26.40;18.08;;;614.90;1408.00;;;;;;5056788;28;20490;-78
2022/03/29 12:24:18;;;;;;;23.00;17.05;;;615.10;1382.40;;;;;;5056364;28;20021;-78
2022/03/29 12:26:49;;;;;;;24.55;17.58;;;614.80;1356.80;;;;;;5038738;28;20020;-79
2022/03/29 12:29:22;;;;;;;23.43;17.00;;;615.10;1356.80;;;;;;5038635;28;20424;-79
2022/03/29 12:31:49;;;;;;;25.73;18.10;;;615.20;1331.20;;;;;;5038070;28;20278;-78
2022/03/29 12:34:21;;;;;;;24.85;18.38;;;640.00;1331.20;;;;;;5038642;28;20017;-77
2022/03/29 12:36:55;;;;;;;24.45;16.63;;;615.20;1356.80;;;;;;5038414;28;20100;-77
2022/03/29 12:39:22;;;;;;;25.52;19.02;;;614.90;1356.80;;;;;;5038473;28;20480;-75
2022/03/29 12:41:58;;;;;;;41.30;29.48;;;614.80;1356.80;;;;;;5038523;28;20025;-77
2022/03/29 12:44:34;;;;;;;29.55;22.65;;;615.30;1356.80;;;;;;5056051;28;20017;-79
2022/03/29 12:47:01;;;;;;;32.55;18.40;;;640.00;1356.80;;;;;;5038337;28;20628;-77
2022/03/29 12:49:27;;;;;;;20.65;16.60;;;640.20;1331.20;;;;;;5038568;28;20407;-78
2022/03/29 12:52:01;;;;;;;22.33;15.52;;;615.10;1331.20;;;;;;5037221;28;20072;-78
2022/03/29 12:54:44;;;;;;;26.25;15.98;;;640.00;1331.20;;;;;;5054630;28;20022;-79
2022/03/29 12:57:14;;;;;;;24.38;15.85;;;640.00;1331.20;;;;;;5038225;28;20016;-80
2022/03/29 12:59:43;;;;;;;28.02;16.58;;;640.00;1331.20;;;;;;5037594;28;20188;-81
2022/03/29 13:02:12;;;;;;;33.05;18.67;;;640.20;1305.60;;;;;;5056142;28;20028;-79
2022/03/29 13:04:51;;;;;;;24.38;18.92;;;640.20;1305.60;;;;;;5038188;28;20500;-79
2022/03/29 13:07:44;;;;;;;25.95;17.55;;;640.30;1305.60;;;;;;5037428;28;20560;-79
2022/03/29 13:10:37;;;;;;;21.60;16.98;;;640.20;1280.00;;;;;;5037413;28;20115;-77
2022/03/29 13:13:19;;;;;;;26.30;18.25;;;615.30;1305.60;;;;;;5049126;28;20044;-79
2022/03/29 13:15:46;;;;;;;23.07;17.13;;;640.30;1305.60;;;;;;5037916;28;20029;-79
2022/03/29 13:18:37;;;;;;;19.10;16.05;;;640.30;1280.00;;;;;;5057966;28;20024;-81
2022/03/29 13:21:45;;;;;;;29.90;17.00;;;615.30;1280.00;;;;;;5057045;28;20024;-81
2022/03/29 13:24:34;;;;;;;32.05;20.20;;;640.20;1280.00;;;;;;5057665;28;20027;-79
2022/03/29 13:27:00;;;;;;;32.63;20.85;;;640.50;1280.00;;;;;;5057556;28;20024;-79
2022/03/29 13:29:31;;;;;;;28.65;18.70;;;640.10;1280.00;;;;;;5057830;28;20025;-81
2022/03/29 13:35:09;;;;;;;30.48;21.20;;;615.30;1280.00;;;;;;5051943;28;20035;-80
2022/03/29 13:37:59;;;;;;;27.77;19.42;;;615.30;1280.00;;;;;;5061888;28;20407;-79
2022/03/29 13:40:25;;;;;;;27.98;17.60;;;615.30;1280.00;;;;;;5062496;28;20025;-78
2022/03/29 13:42:51;;;;;;;26.25;17.38;;;640.00;1280.00;;;;;;5057211;28;20031;-79
2022/03/29 13:45:17;;;;;;;27.52;17.20;;;615.30;1280.00;;;;;;5057330;28;20017;-78
2022/03/29 13:47:43;;;;;;;28.40;17.25;;;615.20;1280.00;;;;;;5057064;28;20077;-78
2022/03/29 13:50:09;;;;;;;25.48;17.35;;;615.10;1280.00;;;;;;5057227;28;20615;-85
2022/03/29 13:52:34;;;;;;;24.15;16.27;;;615.10;1280.00;;;;;;5057210;28;20452;-80
2022/03/29 13:55:00;;;;;;;32.85;18.75;;;614.90;1280.00;;;;;;5056922;28;20418;-81
2022/03/29 13:57:26;;;;;;;23.52;16.63;;;615.20;1305.60;;;;;;5057231;28;20062;-80
2022/03/29 13:59:52;;;;;;;43.53;18.58;;;615.00;1280.00;;;;;;5056927;28;20364;-78